Artesian, Iowa
Current Conditions -  °F | °C
As of 2:54 AM on Wednesday 22 Oct 2014 (Local Time) from KALO Reporting Station
Clear Clear  
Wind Chill: 34°   Ceiling: Unl
Heat Index: 40°   Visibility: 10mi
Dew Point: 36°   Wind: 9mph
Humidity: 86%   Direction: 120°ESE
Pressure: 30.24"   Gusts: NA
Location:  42.787°N, 92.4284°W
Report Text: KALO 220754Z 12008KT 10SM CLR 04/02 A3024 RMK AO2 SLP244 T00440022
Loading
Personal Weather Stations






























Interactive Weather Map New forecast layout! Learn more

10-Day Weather Forecast

Advertisements
Track Severe Weather on mobile